Time;durP1;ratioP1;P1;durP2;ratioP2;P2;SDS_P1;SDS_P2;PMS_P1;PMS_P2;Temp;Humidity;BMP_temperature;BMP_pressure;BME280_temperature;BME280_humidity;BME280_pressure;Samples;Min_cycle;Max_cycle;Signal;HPM_P1;HPM_P2
2021/12/07 00:01:16;;;;;;;5.40;3.37;;;4.90;79.20;;;5.42;53.56;98026.03;4877320;28;123557;-86
2021/12/07 00:03:43;;;;;;;4.47;3.40;;;4.90;79.00;;;5.35;54.57;98031.91;4846638;28;114710;-86
2021/12/07 00:06:10;;;;;;;3.20;2.90;;;4.80;79.00;;;5.35;54.07;98020.97;4877439;28;114823;-86
2021/12/07 00:08:41;;;;;;;3.77;3.10;;;4.80;79.00;;;5.34;54.37;98019.31;4862092;28;123109;-87
2021/12/07 00:11:10;;;;;;;5.87;3.20;;;6.00;80.10;;;5.34;54.40;98016.56;4863738;28;122863;-87
2021/12/07 00:13:39;;;;;;;3.40;3.07;;;4.90;79.20;;;5.38;54.14;98008.59;4845243;29;114020;-86
2021/12/07 00:16:11;;;;;;;3.20;2.70;;;4.90;79.00;;;5.39;54.10;98007.47;4877974;28;113559;-85
2021/12/07 00:18:40;;;;;;;4.50;2.40;;;4.90;79.00;;;5.39;54.39;98002.00;4877155;28;123287;-86
2021/12/07 00:21:08;;;;;;;4.47;3.00;;;6.10;80.10;;;5.42;54.16;98004.94;4875191;28;123397;-85
2021/12/07 00:23:36;;;;;;;4.53;3.00;;;5.40;79.60;;;5.44;53.66;98001.91;4885350;28;112791;-86
2021/12/07 00:26:05;;;;;;;5.27;3.23;;;5.50;79.50;;;5.44;54.03;97993.69;4870938;28;114041;-86
2021/12/07 00:29:10;;;;;;;3.47;2.90;;;4.80;78.80;;;5.47;53.90;97990.34;4885273;28;123161;-87
2021/12/07 00:31:46;;;;;;;3.03;2.33;;;4.40;78.50;;;5.47;54.30;97990.34;4887752;28;123228;-86
2021/12/07 00:34:41;;;;;;;3.33;2.63;;;5.60;79.60;;;5.50;53.73;97997.97;4869431;28;113080;-86
2021/12/07 00:37:10;;;;;;;3.47;2.77;;;6.50;80.50;;;5.51;53.89;97991.41;4845209;28;113667;-85
2021/12/07 00:39:38;;;;;;;5.83;3.03;;;6.20;80.00;;;5.48;54.20;98006.50;4879104;28;122961;-86
2021/12/07 00:42:07;;;;;;;3.40;2.93;;;5.70;79.50;;;5.50;53.76;98011.66;4878886;28;123727;-87
2021/12/07 00:44:36;;;;;;;3.40;2.50;;;6.00;79.80;;;5.51;53.83;98005.91;4880206;28;112823;-86
2021/12/07 00:47:04;;;;;;;3.60;3.03;;;5.00;78.80;;;5.52;54.35;98003.97;4883959;28;113930;-86
2021/12/07 00:49:30;;;;;;;3.83;2.60;;;3.80;77.90;;;5.53;54.00;98005.59;4870009;28;122898;-85
2021/12/07 00:52:36;;;;;;;3.10;2.70;;;5.00;79.00;;;5.53;53.73;98000.09;4859146;28;122667;-87
2021/12/07 00:55:10;;;;;;;2.80;2.53;;;5.10;79.30;;;5.51;54.65;98007.84;4843652;28;115033;-86
2021/12/07 00:57:41;;;;;;;5.30;2.63;;;4.90;79.40;;;5.50;54.13;98007.00;4843918;28;113619;-87
2021/12/07 01:00:16;;;;;;;4.60;2.80;;;5.30;80.10;;;5.51;54.59;97996.88;4859315;28;123507;-87
2021/12/07 01:02:43;;;;;;;2.93;2.63;;;4.40;79.60;;;5.51;54.86;97999.63;4859596;28;123013;-87
2021/12/07 01:05:35;;;;;;;3.30;2.90;;;5.00;80.30;;;5.52;55.86;97999.31;4847597;28;113436;-87
2021/12/07 01:26:52;;;;;;;3.40;2.80;;;4.80;82.10;;;5.26;57.63;97987.94;4857490;29;124452;-86
2021/12/07 01:30:10;;;;;;;4.57;3.67;;;6.50;83.90;;;5.26;57.16;97995.34;4871882;28;112938;-87
2021/12/07 01:42:53;;;;;;;2.60;2.40;;;4.80;83.80;;;5.13;58.25;97996.91;4876381;28;114763;-85
2021/12/07 02:00:34;;;;;;;2.63;2.40;;;6.30;87.10;;;5.06;59.70;98010.97;4878752;28;124490;-86
2021/12/07 02:03:05;;;;;;;3.07;2.77;;;6.10;87.10;;;5.04;59.90;98006.91;4877334;28;112508;-86
2021/12/07 02:05:50;;;;;;;3.10;2.50;;;4.60;86.00;;;5.03;59.94;98022.50;4870313;28;113170;-87
2021/12/07 02:08:19;;;;;;;3.20;2.83;;;4.40;86.30;;;4.95;59.92;98025.91;4861243;28;122085;-86
2021/12/07 02:11:04;;;;;;;2.90;2.60;;;5.00;87.00;;;4.97;60.25;98011.91;4888705;28;122928;-86
2021/12/07 02:16:21;;;;;;;3.40;2.63;;;4.50;86.80;;;4.88;60.77;98007.09;4876266;28;113987;-86
2021/12/07 02:18:49;;;;;;;3.37;2.67;;;4.40;87.10;;;4.89;60.36;98002.47;4875305;28;123550;-86
2021/12/07 02:21:25;;;;;;;3.90;2.67;;;5.20;88.00;;;4.94;61.38;98013.31;4856209;28;122325;-86
2021/12/07 02:24:10;;;;;;;5.27;2.70;;;4.50;87.60;;;4.94;61.05;98018.78;4873110;28;113379;-86
2021/12/07 02:26:37;;;;;;;3.27;2.30;;;4.40;87.70;;;4.92;61.25;98022.97;4855533;28;113688;-86
2021/12/07 02:29:24;;;;;;;3.50;2.63;;;5.90;89.20;;;4.95;61.57;98041.53;4873393;28;123819;-85
2021/12/07 02:31:58;;;;;;;4.63;3.07;;;4.50;88.50;;;4.89;61.97;98018.88;4870235;28;122177;-86
2021/12/07 02:34:53;;;;;;;2.57;2.30;;;4.40;88.80;;;4.88;61.84;98014.50;4864854;28;113380;-86
2021/12/07 02:37:32;;;;;;;2.93;2.63;;;4.50;88.50;;;4.91;62.17;98015.84;4851329;28;112627;-85
2021/12/07 02:39:59;;;;;;;3.40;2.90;;;5.60;89.80;;;4.90;62.35;98014.22;4879413;28;123722;-86
2021/12/07 02:42:27;;;;;;;7.00;2.90;;;5.30;89.70;;;4.90;61.77;98012.28;4863423;28;122194;-86
2021/12/07 02:44:55;;;;;;;2.70;2.50;;;4.90;89.30;;;4.95;62.75;98017.69;4883443;28;114728;-86
2021/12/07 02:47:21;;;;;;;3.17;2.87;;;6.10;90.40;;;4.94;62.44;98024.25;4899515;28;114347;-86
2021/12/07 02:50:09;;;;;;;2.80;2.40;;;4.40;89.10;;;4.97;62.56;98028.34;4845573;29;122441;-86
2021/12/07 02:52:37;;;;;;;3.40;2.50;;;4.40;89.40;;;4.93;62.77;98041.00;4849799;28;122333;-86
2021/12/07 02:55:24;;;;;;;2.30;2.10;;;5.30;90.30;;;4.94;62.98;98042.63;4862133;29;113809;-86
2021/12/07 02:58:09;;;;;;;2.60;2.40;;;4.50;90.00;;;4.95;62.33;98044.25;4865192;28;113313;-86
2021/12/07 03:00:44;;;;;;;2.83;2.53;;;4.50;90.10;;;4.93;62.59;98046.47;4864736;28;123155;-86
2021/12/07 03:03:13;;;;;;;2.83;2.27;;;4.40;90.10;;;4.96;63.66;98049.44;4863162;28;122513;-85
2021/12/07 03:06:20;;;;;;;2.23;2.03;;;4.70;90.20;;;5.00;63.38;98055.16;4849893;28;114827;-85
2021/12/07 03:26:07;;;;;;;2.90;2.00;;;5.30;90.70;;;5.02;63.69;98072.91;4851064;28;123527;-87
2021/12/07 03:28:57;;;;;;;1.70;1.60;;;4.60;90.50;;;5.05;63.70;98079.69;4853480;28;112915;-87
2021/12/07 03:31:26;;;;;;;2.00;1.70;;;4.70;90.50;;;5.03;63.86;98074.53;4860878;28;113215;-87
2021/12/07 03:33:55;;;;;;;1.60;1.50;;;4.50;90.50;;;5.05;63.20;98072.31;4855411;29;123697;-86
2021/12/07 03:36:24;;;;;;;2.10;1.90;;;6.30;91.30;;;5.10;63.60;98074.16;4847494;28;123149;-86
2021/12/07 03:38:51;;;;;;;1.63;1.53;;;5.50;91.00;;;5.09;63.68;98072.53;4841595;29;114804;-87
2021/12/07 03:41:19;;;;;;;2.73;1.70;;;5.80;91.10;;;5.11;63.82;98069.50;4850417;28;114512;-86
2021/12/07 03:43:47;;;;;;;2.33;1.87;;;4.30;90.50;;;5.14;63.63;98067.00;4863082;28;122416;-86
2021/12/07 03:46:51;;;;;;;2.30;1.80;;;6.20;91.40;;;5.20;64.07;98068.53;4844906;28;122483;-85
2021/12/07 03:49:18;;;;;;;1.70;1.60;;;4.50;90.60;;;5.18;63.77;98076.22;4858000;28;113934;-87
2021/12/07 03:51:45;;;;;;;2.07;1.83;;;5.50;91.00;;;5.20;63.91;98087.72;4829158;29;113363;-86
2021/12/07 03:54:13;;;;;;;2.00;1.77;;;3.50;90.30;;;5.22;63.50;98088.22;4875588;28;123486;-87
2021/12/07 03:56:59;;;;;;;1.90;1.43;;;5.50;91.00;;;5.24;64.21;98087.94;4828634;29;122482;-87
2021/12/07 03:59:27;;;;;;;2.43;1.77;;;4.70;90.80;;;5.23;64.09;98083.56;4859369;29;112688;-86
2021/12/07 04:02:02;;;;;;;1.90;1.80;;;6.30;91.50;;;5.24;64.08;98101.66;4829505;28;112343;-85
2021/12/07 04:04:30;;;;;;;1.97;1.33;;;4.70;90.90;;;5.20;64.41;98112.34;4862192;28;124965;-86
2021/12/07 04:07:01;;;;;;;3.20;2.07;;;6.20;91.60;;;5.19;64.12;98110.72;4861609;28;123449;-86
2021/12/07 04:09:31;;;;;;;1.70;1.60;;;4.70;91.00;;;5.15;64.83;98104.19;4837791;29;113219;-86
2021/12/07 04:12:16;;;;;;;1.70;1.47;;;4.60;91.20;;;5.15;64.24;98109.69;4828312;29;113498;-86
2021/12/07 04:15:05;;;;;;;2.27;1.60;;;4.70;91.30;;;5.14;64.83;98113.53;4873813;28;123960;-86
2021/12/07 04:18:10;;;;;;;2.60;1.80;;;4.60;91.10;;;5.14;64.30;98124.50;4857734;28;121875;-87
2021/12/07 04:20:41;;;;;;;3.73;1.80;;;4.70;91.20;;;5.13;64.92;98117.41;4840613;29;114403;-87
2021/12/07 04:23:47;;;;;;;1.60;1.50;;;6.20;91.90;;;5.18;65.19;98131.00;4852054;29;113675;-86
2021/12/07 04:26:16;;;;;;;1.70;1.60;;;4.70;91.30;;;5.16;64.51;98133.22;4826779;29;122604;-84
2021/12/07 04:28:44;;;;;;;1.40;1.30;;;5.70;91.70;;;5.15;64.96;98139.00;4855569;28;123792;-87
2021/12/07 04:32:07;;;;;;;2.00;1.60;;;5.50;91.70;;;5.22;65.03;98132.06;4870135;28;113858;-87
2021/12/07 04:34:39;;;;;;;1.50;1.40;;;4.70;91.40;;;5.23;64.80;98138.34;4847397;28;114202;-86
2021/12/07 04:37:26;;;;;;;1.63;1.23;;;4.70;91.70;;;5.31;65.12;98138.50;4875590;28;123583;-86
2021/12/07 04:39:55;;;;;;;1.73;1.63;;;4.80;91.40;;;5.33;65.13;98143.69;4842165;28;122089;-86
2021/12/07 04:42:24;;;;;;;3.87;1.40;;;4.80;91.50;;;5.39;65.18;98147.16;4841697;29;112825;-86
2021/12/07 04:59:34;;;;;;;1.40;1.20;;;6.00;91.80;;;5.51;64.22;98175.78;4880127;28;123790;-86
2021/12/07 05:02:02;;;;;;;1.30;1.20;;;5.10;91.50;;;5.54;64.15;98188.88;4865846;28;122215;-87
2021/12/07 05:04:32;;;;;;;1.30;1.20;;;3.70;91.00;;;5.62;65.12;98184.66;4875614;28;113387;-86
2021/12/07 05:07:26;;;;;;;2.17;1.40;;;6.00;91.90;;;5.68;64.78;98188.97;4864053;28;113043;-87
2021/12/07 05:14:45;;;;;;;2.10;1.47;;;5.20;91.50;;;5.74;64.53;98185.03;4860169;28;113907;-86
2021/12/07 05:39:08;;;;;;;1.67;1.50;;;5.20;91.40;;;5.69;64.45;98187.84;4884027;28;114361;-86
2021/12/07 05:41:35;;;;;;;5.93;2.07;;;6.40;91.90;;;5.68;64.38;98199.13;4845145;28;124442;-85
2021/12/07 05:44:03;;;;;;;6.20;1.50;;;4.60;91.10;;;5.65;64.53;98206.00;4844053;28;123422;-86
2021/12/07 05:46:30;;;;;;;1.73;1.60;;;6.30;91.80;;;5.63;64.44;98197.25;4891049;28;112791;-87
2021/12/07 05:48:58;;;;;;;3.33;1.60;;;5.10;91.40;;;5.62;64.14;98205.78;4844410;28;112469;-85
2021/12/07 05:51:26;;;;;;;2.10;1.30;;;5.10;91.30;;;5.66;63.84;98209.53;4877687;28;123261;-88
2021/12/07 05:54:13;;;;;;;2.80;1.90;;;5.70;91.50;;;5.69;64.22;98211.69;4877403;28;122895;-88
2021/12/07 05:56:40;;;;;;;6.87;1.60;;;5.20;91.20;;;5.68;64.13;98221.84;4861625;28;114965;-87
2021/12/07 05:59:07;;;;;;;4.27;2.10;;;5.20;91.30;;;5.69;63.91;98228.13;4852485;28;112996;-88
2021/12/07 06:01:35;;;;;;;4.80;1.97;;;5.10;91.20;;;5.69;63.12;98231.69;4867485;28;123243;-88
2021/12/07 06:04:03;;;;;;;4.00;1.63;;;6.00;91.50;;;5.70;63.85;98224.31;4877996;28;122810;-87
2021/12/07 06:06:30;;;;;;;1.50;1.40;;;5.30;91.10;;;5.70;64.10;98225.13;4858965;28;113750;-88
2021/12/07 06:08:57;;;;;;;6.37;1.70;;;4.40;90.70;;;5.72;63.35;98239.34;4844144;28;113169;-89
2021/12/07 06:11:24;;;;;;;4.10;1.87;;;6.60;91.50;;;5.74;63.70;98252.75;4854571;28;123650;-88
2021/12/07 06:13:52;;;;;;;4.80;1.80;;;6.90;91.60;;;5.75;63.49;98254.38;4855450;28;123331;-87
2021/12/07 06:16:19;;;;;;;2.90;1.50;;;7.00;91.70;;;5.78;63.45;98261.19;4839054;28;114246;-87
2021/12/07 06:18:47;;;;;;;3.07;1.90;;;5.30;90.90;;;5.76;63.32;98256.81;4838171;29;114486;-86
2021/12/07 06:21:14;;;;;;;4.00;1.80;;;6.80;91.60;;;5.79;63.40;98255.41;4830827;28;122350;-87
2021/12/07 06:23:44;;;;;;;4.27;2.07;;;7.00;91.60;;;5.82;63.21;98260.31;4842542;28;123885;-88
2021/12/07 06:26:10;;;;;;;2.90;1.70;;;5.30;90.90;;;5.87;63.09;98256.69;4858023;28;114318;-87
2021/12/07 06:28:38;;;;;;;4.60;1.70;;;6.70;91.40;;;5.91;62.95;98257.72;4859750;28;112265;-86
2021/12/07 06:31:05;;;;;;;2.70;1.80;;;6.60;91.40;;;5.94;62.83;98262.66;4844537;28;122056;-88
2021/12/07 06:33:31;;;;;;;3.43;2.10;;;6.70;91.30;;;5.97;62.42;98271.09;4861943;28;122582;-87
2021/12/07 06:36:16;;;;;;;2.63;1.40;;;7.10;91.40;;;6.00;62.53;98272.44;4877391;28;114158;-84
2021/12/07 06:38:44;;;;;;;6.53;2.10;;;5.40;90.60;;;5.97;62.30;98271.09;4844455;28;113046;-88
2021/12/07 06:41:11;;;;;;;3.07;1.60;;;7.10;91.10;;;5.96;62.42;98277.72;4843383;28;123214;-87
2021/12/07 06:43:38;;;;;;;2.57;1.67;;;7.10;91.10;;;6.01;61.92;98278.72;4874558;28;124131;-80
2021/12/07 06:46:04;;;;;;;2.27;1.37;;;6.40;90.80;;;6.05;61.93;98280.59;4867904;28;113470;-80
2021/12/07 06:48:31;;;;;;;3.43;1.40;;;7.40;91.10;;;6.07;61.82;98280.28;4843109;28;113422;-87
2021/12/07 06:50:58;;;;;;;2.53;1.63;;;7.30;91.00;;;6.11;61.88;98287.63;4856320;28;121674;-86
2021/12/07 06:53:24;;;;;;;3.70;1.80;;;5.60;90.20;;;6.13;61.67;98279.94;4864871;28;123290;-86
2021/12/07 06:55:51;;;;;;;2.13;1.23;;;7.10;90.80;;;6.17;61.66;98278.22;4881535;28;114202;-87
2021/12/07 06:58:17;;;;;;;3.90;1.50;;;5.70;90.20;;;6.24;61.60;98310.78;4857039;28;113755;-87
2021/12/07 07:00:44;;;;;;;3.77;1.43;;;5.70;90.20;;;6.25;61.54;98312.41;4868422;28;124114;-86
2021/12/07 07:03:12;;;;;;;1.43;1.33;;;7.00;90.70;;;6.27;61.26;98317.59;4857514;28;123904;-88
2021/12/07 07:05:38;;;;;;;5.63;1.60;;;6.80;90.40;;;6.28;61.48;98306.31;4876639;28;114675;-86
2021/12/07 07:08:06;;;;;;;3.20;1.30;;;5.80;90.00;;;6.36;61.27;98329.53;4879755;28;114695;-88
2021/12/07 07:10:33;;;;;;;3.60;1.70;;;6.80;90.50;;;6.37;60.67;98328.44;4884940;28;123009;-85
2021/12/07 07:13:00;;;;;;;3.20;1.30;;;5.80;90.00;;;6.39;60.91;98323.44;4873738;28;122937;-87
2021/12/07 07:15:28;;;;;;;12.93;2.30;;;6.50;90.20;;;6.41;61.13;98318.47;4876562;28;113241;-85
2021/12/07 07:17:55;;;;;;;2.53;1.70;;;5.90;90.00;;;6.49;60.83;98322.50;4873111;28;114033;-86
2021/12/07 07:20:22;;;;;;;3.23;1.60;;;5.90;89.80;;;6.54;60.29;98330.66;4887381;28;123729;-85
2021/12/07 07:22:49;;;;;;;1.60;1.30;;;4.70;88.80;;;6.58;61.01;98332.50;4885902;28;124218;-88
2021/12/07 07:25:16;;;;;;;5.20;1.87;;;6.00;89.80;;;6.61;60.48;98339.34;4890124;28;113438;-85
2021/12/07 07:27:42;;;;;;;2.13;1.70;;;7.80;90.60;;;6.67;60.78;98342.81;4880534;28;114029;-86
2021/12/07 07:30:13;;;;;;;3.40;1.60;;;6.10;89.80;;;6.69;60.52;98343.31;4881007;28;123397;-87
2021/12/07 07:32:39;;;;;;;2.30;1.73;;;6.00;89.60;;;6.69;60.45;98333.16;4859385;28;123881;-85
2021/12/07 07:35:09;;;;;;;6.57;1.90;;;7.10;90.20;;;6.68;60.53;98330.72;4860181;28;113642;-87
2021/12/07 07:37:38;;;;;;;5.87;1.70;;;6.10;89.40;;;6.65;60.26;98340.34;4858462;28;113173;-86
2021/12/07 07:40:10;;;;;;;4.27;1.60;;;6.10;89.10;;;6.64;60.47;98336.78;4874728;28;124010;-86
2021/12/07 07:42:37;;;;;;;2.40;1.33;;;6.10;89.00;;;6.64;59.92;98336.78;4877851;28;122511;-88
2021/12/07 07:45:04;;;;;;;2.27;1.30;;;6.10;89.00;;;6.68;59.90;98336.19;4890657;28;114709;-89
2021/12/07 07:47:31;;;;;;;2.73;1.60;;;6.10;89.00;;;6.69;59.86;98340.56;4861755;28;112325;-88
2021/12/07 07:49:57;;;;;;;3.23;1.37;;;6.20;88.80;;;6.66;59.95;98336.47;4868578;28;124842;-85
2021/12/07 07:52:24;;;;;;;2.03;1.60;;;6.10;88.80;;;6.69;59.46;98344.16;4854799;28;123446;-86
2021/12/07 07:54:51;;;;;;;2.90;1.50;;;6.20;88.60;;;6.64;59.74;98342.28;4854941;28;114364;-86
2021/12/07 07:57:17;;;;;;;3.00;1.90;;;6.10;88.20;;;6.62;59.67;98350.00;4839531;28;114066;-85
2021/12/07 07:59:44;;;;;;;5.33;1.90;;;6.80;88.70;;;6.62;59.35;98351.94;4870662;28;124243;-86
2021/12/07 08:02:11;;;;;;;6.33;2.10;;;6.10;88.10;;;6.61;59.41;98356.59;4852751;29;123439;-86
2021/12/07 08:04:38;;;;;;;4.30;1.73;;;7.60;89.30;;;6.60;59.41;98351.41;4871929;28;113866;-85
2021/12/07 08:07:05;;;;;;;2.93;1.70;;;6.10;87.80;;;6.59;59.54;98356.09;4858316;28;113314;-88
2021/12/07 08:09:32;;;;;;;6.37;1.60;;;6.10;87.70;;;6.58;59.28;98370.94;4848435;28;123911;-85
2021/12/07 08:11:58;;;;;;;2.63;1.70;;;6.10;87.60;;;6.57;59.29;98368.47;4868347;28;123399;-86
2021/12/07 08:14:25;;;;;;;5.10;1.73;;;7.20;88.50;;;6.56;59.14;98375.91;4853905;28;113454;-86
2021/12/07 08:16:51;;;;;;;2.47;1.70;;;6.10;87.50;;;6.56;59.33;98367.66;4874901;28;113777;-85
2021/12/07 08:19:18;;;;;;;7.23;2.17;;;7.60;88.90;;;6.63;59.35;98383.75;4873524;28;121975;-86
2021/12/07 08:21:44;;;;;;;5.47;1.90;;;6.20;87.80;;;6.63;58.99;98379.06;4873144;28;124384;-86
2021/12/07 08:24:11;;;;;;;2.73;1.80;;;6.70;88.00;;;6.66;58.99;98382.34;4852370;29;113981;-86
2021/12/07 08:26:38;;;;;;;4.80;2.13;;;6.20;87.50;;;6.60;58.82;98374.16;4837831;29;113624;-86
2021/12/07 08:29:05;;;;;;;4.50;1.87;;;7.20;88.00;;;6.60;58.65;98360.44;4839034;29;124159;-86
2021/12/07 08:31:32;;;;;;;8.27;3.03;;;6.10;86.80;;;6.59;59.38;98374.50;4861409;28;123042;-86
2021/12/07 08:34:00;;;;;;;6.57;1.73;;;6.20;87.10;;;6.58;58.86;98365.44;4871145;28;114198;-85
2021/12/07 08:36:28;;;;;;;4.17;1.87;;;7.60;88.20;;;6.56;58.91;98373.16;4857954;28;113867;-87
2021/12/07 08:38:56;;;;;;;4.40;2.27;;;7.70;88.10;;;6.52;58.31;98382.25;4838260;29;124048;-86
2021/12/07 08:41:23;;;;;;;2.70;1.60;;;6.10;86.50;;;6.49;58.33;98378.19;4842422;28;122854;-85
2021/12/07 08:43:50;;;;;;;8.00;1.67;;;6.90;87.10;;;6.45;58.46;98377.16;4858094;28;114809;-86
2021/12/07 08:46:17;;;;;;;6.57;2.03;;;6.70;86.90;;;6.45;57.93;98385.38;4843962;28;113847;-86
2021/12/07 08:48:44;;;;;;;3.80;1.80;;;6.10;86.20;;;6.47;58.17;98396.88;4864892;28;123317;-87
2021/12/07 08:51:12;;;;;;;6.20;1.90;;;6.00;86.00;;;6.45;58.36;98379.91;4858836;28;122100;-86
2021/12/07 08:53:48;;;;;;;4.27;2.03;;;6.10;86.10;;;6.46;58.20;98398.00;4877668;28;113728;-85
2021/12/07 09:01:51;;;;;;;3.30;1.67;;;6.10;85.90;;;6.52;58.05;98391.31;4882431;28;124374;-86
2021/12/07 09:04:20;;;;;;;6.40;1.73;;;7.60;87.30;;;6.56;57.99;98389.63;4875692;28;113339;-85
2021/12/07 09:06:48;;;;;;;5.40;2.00;;;6.10;85.90;;;6.63;57.41;98400.22;4881969;28;113123;-85
2021/12/07 09:09:16;;;;;;;4.63;1.90;;;7.50;87.10;;;6.63;57.57;98405.69;4857542;28;124120;-87
2021/12/07 09:11:43;;;;;;;3.10;1.60;;;5.90;85.20;;;6.64;57.28;98415.59;4874861;28;123860;-86
2021/12/07 09:14:13;;;;;;;7.53;2.37;;;7.50;86.30;;;6.67;57.70;98416.94;4861847;28;112671;-87
2021/12/07 09:16:43;;;;;;;3.20;1.80;;;6.30;85.40;;;6.69;57.08;98415.53;4873917;28;113762;-86
2021/12/07 09:19:10;;;;;;;2.40;1.67;;;6.20;85.20;;;6.72;57.92;98414.13;4867682;28;125211;-88
2021/12/07 09:21:37;;;;;;;4.43;1.93;;;7.60;86.40;;;6.77;57.31;98405.78;4883884;28;123859;-86
2021/12/07 09:24:04;;;;;;;6.97;2.53;;;6.30;85.20;;;6.78;57.37;98401.94;4857757;28;113687;-87
2021/12/07 09:26:31;;;;;;;6.30;1.70;;;6.30;84.90;;;6.81;56.77;98404.09;4872811;28;114028;-86
2021/12/07 09:28:59;;;;;;;6.23;1.97;;;7.70;86.10;;;6.85;57.21;98402.34;4859493;28;123480;-86
2021/12/07 09:31:44;;;;;;;8.80;1.90;;;6.40;84.90;;;6.93;57.23;98406.38;4872268;28;124027;-87
2021/12/07 09:34:12;;;;;;;6.40;1.93;;;6.40;84.90;;;6.95;57.00;98401.41;4879810;28;113577;-88
2021/12/07 09:36:42;;;;;;;5.57;1.80;;;6.50;85.00;;;6.98;57.03;98406.28;4863164;28;113484;-86
2021/12/07 09:39:48;;;;;;;4.93;2.10;;;6.50;84.50;;;6.99;56.62;98407.94;4878160;28;122186;-85
2021/12/07 09:42:16;;;;;;;4.30;2.37;;;6.50;84.30;;;6.98;56.61;98409.84;4861146;28;122184;-86
2021/12/07 09:44:43;;;;;;;3.73;1.83;;;7.30;84.70;;;6.99;55.83;98419.75;4878597;28;113972;-86
2021/12/07 09:47:09;;;;;;;2.20;1.20;;;7.10;84.10;;;6.99;56.03;98413.44;4862433;28;113637;-86
2021/12/07 09:49:36;;;;;;;4.20;1.93;;;6.60;83.60;;;7.02;56.19;98408.16;4870523;28;124184;-86
2021/12/07 09:52:03;;;;;;;3.33;1.90;;;7.10;84.00;;;7.06;56.41;98414.66;4864520;28;122937;-85
2021/12/07 09:54:29;;;;;;;2.70;1.73;;;6.60;83.60;;;7.11;55.93;98401.97;4868170;28;114329;-87
2021/12/07 09:56:56;;;;;;;3.20;2.23;;;7.80;84.40;;;7.16;55.95;98393.66;4866292;28;113851;-87
2021/12/07 09:59:23;;;;;;;4.57;2.10;;;7.60;84.10;;;7.20;55.39;98425.72;4872762;28;123949;-86
2021/12/07 10:01:49;;;;;;;2.83;1.70;;;7.50;83.60;;;7.23;55.60;98413.31;4885964;28;123015;-86
2021/12/07 10:04:16;;;;;;;6.60;1.60;;;6.80;82.90;;;7.31;55.33;98412.63;4887203;28;113955;-86
2021/12/07 10:06:43;;;;;;;4.67;1.57;;;6.80;82.90;;;7.36;55.14;98415.31;4886730;28;113992;-83
2021/12/07 10:09:09;;;;;;;4.60;2.00;;;6.90;83.00;;;7.41;55.28;98420.69;4883825;28;123775;-86
2021/12/07 10:11:37;;;;;;;5.33;2.10;;;6.90;82.60;;;7.44;55.41;98424.78;4872684;28;123959;-88
2021/12/07 10:14:04;;;;;;;6.87;2.17;;;7.40;83.10;;;7.43;54.25;98421.22;4870657;28;114253;-85
2021/12/07 10:16:31;;;;;;;5.10;1.60;;;7.00;81.40;;;7.38;54.05;98404.81;4852876;28;113270;-86
2021/12/07 10:18:58;;;;;;;5.43;1.70;;;7.00;81.00;;;7.33;53.42;98396.66;4881775;28;124105;-86
2021/12/07 10:21:31;;;;;;;5.13;2.30;;;6.90;80.20;;;7.30;53.65;98419.22;4870302;28;123832;-86
2021/12/07 10:24:07;;;;;;;6.40;1.67;;;6.80;80.20;;;7.25;52.89;98413.81;4882125;28;115210;-87
2021/12/07 10:26:42;;;;;;;7.63;2.20;;;6.90;79.80;;;7.25;53.26;98400.06;4873846;28;115337;-86
2021/12/07 10:29:16;;;;;;;8.40;2.47;;;7.60;80.70;;;7.22;53.40;98390.50;4867938;28;124986;-86
2021/12/07 10:31:48;;;;;;;6.37;1.70;;;6.80;80.00;;;7.26;53.75;98382.50;4869983;28;123532;-85
2021/12/07 10:34:31;;;;;;;2.80;1.30;;;6.90;80.20;;;7.32;53.84;98386.78;4887551;28;114000;-87
2021/12/07 10:37:15;;;;;;;6.20;1.60;;;7.60;80.90;;;7.35;53.05;98374.38;4871657;28;113726;-87
2021/12/07 10:39:50;;;;;;;4.80;1.83;;;7.10;80.10;;;7.33;53.10;98382.91;4871992;28;123591;-86
2021/12/07 10:42:25;;;;;;;4.13;1.77;;;8.40;81.20;;;7.35;52.91;98388.91;4871532;28;122877;-88
2021/12/07 10:44:54;;;;;;;5.83;1.90;;;6.90;79.50;;;7.36;52.86;98382.31;4888941;28;113424;-88
2021/12/07 10:47:23;;;;;;;6.97;1.60;;;7.00;79.50;;;7.41;53.15;98375.91;4874760;28;114038;-86
2021/12/07 10:49:57;;;;;;;3.87;1.90;;;7.70;80.10;;;7.49;52.81;98364.22;4879821;28;123981;-88
2021/12/07 10:52:38;;;;;;;3.23;1.60;;;7.00;79.40;;;7.59;52.44;98371.47;4853229;28;123787;-85
2021/12/07 10:55:10;;;;;;;2.77;1.43;;;7.10;79.40;;;7.66;52.63;98364.44;4866317;28;114293;-87
2021/12/07 10:57:41;;;;;;;3.90;1.70;;;7.20;79.40;;;7.75;52.50;98359.88;4854447;28;113303;-86
2021/12/07 11:00:25;;;;;;;4.27;1.50;;;7.30;79.30;;;7.90;51.90;98356.00;4859222;28;122598;-86
2021/12/07 11:03:01;;;;;;;4.80;1.73;;;7.30;78.70;;;8.08;51.63;98345.19;4868470;28;123071;-86
2021/12/07 11:05:41;;;;;;;6.70;1.70;;;7.40;78.70;;;8.26;50.99;98333.25;4861873;28;113909;-86
2021/12/07 11:08:10;;;;;;;3.03;1.40;;;7.90;79.10;;;8.44;50.90;98330.69;4855178;28;114263;-87
2021/12/07 11:10:47;;;;;;;4.03;1.43;;;7.70;78.60;;;8.56;49.55;98326.25;4858526;28;123229;-86
2021/12/07 11:13:36;;;;;;;3.63;1.63;;;9.20;78.40;;;8.66;49.17;98329.91;4873446;28;123614;-86
2021/12/07 11:16:10;;;;;;;3.73;1.73;;;7.90;76.00;;;8.68;48.42;98334.00;4876218;28;115223;-86
2021/12/07 11:18:48;;;;;;;4.10;1.43;;;8.10;74.80;;;8.63;48.44;98337.66;4872657;28;114870;-86
2021/12/07 11:21:19;;;;;;;2.57;1.70;;;9.60;76.20;;;8.63;49.37;98329.41;4848822;28;124070;-87
2021/12/07 11:23:52;;;;;;;3.30;1.70;;;8.20;75.30;;;8.64;48.32;98324.72;4869316;28;123743;-86
2021/12/07 11:31:50;;;;;;;7.30;1.80;;;8.20;72.70;;;8.49;47.21;98319.53;4859078;28;125213;-87
2021/12/07 11:34:26;;;;;;;5.77;1.73;;;8.20;71.80;;;8.42;47.20;98332.94;4873429;28;123454;-88
2021/12/07 11:36:55;;;;;;;3.57;1.60;;;8.00;71.80;;;8.37;47.31;98325.56;4849489;28;114178;-87
2021/12/07 11:39:42;;;;;;;2.40;1.53;;;8.90;72.60;;;8.37;47.23;98320.88;4876866;28;113320;-87
2021/12/07 11:42:11;;;;;;;3.90;1.50;;;8.00;71.50;;;8.37;46.87;98320.88;4874331;28;121727;-87
2021/12/07 11:45:28;;;;;;;4.77;1.33;;;7.90;71.40;;;8.40;47.22;98320.28;4843438;28;122907;-88
2021/12/07 11:47:59;;;;;;;4.17;1.33;;;8.00;72.50;;;8.53;47.29;98320.56;4870567;28;113138;-87
2021/12/07 11:50:49;;;;;;;4.13;2.40;;;8.00;72.00;;;8.62;46.62;98321.44;4865632;28;112363;-88
2021/12/07 11:53:34;;;;;;;2.70;1.57;;;8.10;71.70;;;8.75;46.72;98315.06;4875904;28;122153;-88
2021/12/07 11:56:01;;;;;;;2.83;1.67;;;8.20;71.40;;;8.85;46.63;98303.81;4875834;28;122760;-86
2021/12/07 11:58:27;;;;;;;7.13;1.93;;;9.70;72.70;;;8.96;46.44;98296.09;4877241;28;113738;-87
2021/12/07 12:00:57;;;;;;;11.77;1.70;;;8.40;71.30;;;9.01;46.28;98289.66;4887293;28;113816;-88
2021/12/07 12:03:43;;;;;;;5.53;1.87;;;8.50;71.30;;;9.04;46.20;98300.03;4886352;28;124105;-86
2021/12/07 12:06:10;;;;;;;3.90;1.60;;;8.50;70.60;;;9.04;46.66;98291.78;4858134;28;123994;-85
2021/12/07 12:08:37;;;;;;;4.10;1.70;;;8.60;70.90;;;9.06;46.45;98281.25;4877265;28;114108;-87
2021/12/07 12:11:26;;;;;;;3.03;1.30;;;8.70;70.80;;;9.15;46.55;98279.34;4875129;28;114966;-86
2021/12/07 12:14:27;;;;;;;2.83;1.27;;;8.70;71.10;;;9.31;46.83;98270.69;4888331;28;123098;-83
2021/12/07 12:17:08;;;;;;;4.33;1.50;;;8.80;71.50;;;9.42;46.84;98272.03;4890969;28;124195;-83
2021/12/07 12:20:02;;;;;;;2.60;1.20;;;8.90;71.80;;;9.54;46.82;98241.09;4874918;28;115332;-87
2021/12/07 12:22:43;;;;;;;6.03;1.63;;;9.00;72.00;;;9.74;46.82;98246.03;4876516;28;113578;-87
2021/12/07 12:25:15;;;;;;;2.70;1.70;;;9.10;72.40;;;9.92;47.01;98244.13;4855192;28;123148;-89
2021/12/07 12:27:43;;;;;;;3.43;1.53;;;9.30;72.50;;;10.07;46.80;98242.84;4892975;28;123059;-86
2021/12/07 12:30:27;;;;;;;3.70;1.60;;;9.40;72.50;;;10.22;46.55;98238.81;4873322;28;114705;-86
2021/12/07 12:33:00;;;;;;;4.57;1.80;;;9.60;72.60;;;10.39;46.31;98239.63;4888856;28;114405;-88
2021/12/07 12:35:52;;;;;;;5.33;1.70;;;10.00;71.70;;;10.59;45.55;98226.31;4871551;28;124231;-89
2021/12/07 12:38:46;;;;;;;7.20;1.70;;;9.90;71.30;;;10.72;45.27;98221.72;4869808;28;123785;-89
2021/12/07 12:41:15;;;;;;;2.30;1.40;;;10.10;69.90;;;10.87;45.41;98217.66;4870454;28;114089;-88
2021/12/07 12:43:55;;;;;;;2.70;1.33;;;10.20;70.10;;;11.01;44.93;98221.84;4874757;28;113046;-88
2021/12/07 12:46:30;;;;;;;4.53;1.50;;;10.40;70.00;;;11.10;45.17;98218.25;4872415;28;123400;-87